Data for 08/26/2015

Time Sea-Level Adjusted Pressure Absolute Pressure Temperature Relative Humidity Dew Point   
(mb) (inHg) (mb) (inHg) (C) (F) (%) (C) (F)
00:05 1020 30.12 849 25.07 22.3 72.2 25 1.6 34.8
00:10 1020 30.12 849 25.07 22.3 72.2 25 1.7 35
00:15 1020 30.12 849 25.07 22.5 72.5 24 1.4 34.5
00:20 1020 30.12 849 25.07 22.8 73 24 1.5 34.8
00:25 1020 30.12 849 25.07 22.7 72.9 24 1.5 34.6
00:30 1020 30.12 849 25.07 22.8 73 24 1.5 34.7
00:35 1020 30.12 849 25.07 22.5 72.5 25 1.6 34.9
00:40 1020 30.12 849 25.07 22.4 72.2 25 1.7 35.1
00:45 1020 30.12 849 25.07 22.2 72 25 1.7 35
00:50 1020 30.12 849 25.07 22.4 72.3 25 1.5 34.7
00:55 1020 30.12 849 25.07 22.3 72.2 26 2.3 36.2
01:00 1020 30.12 849 25.07 21.1 70 29 2.4 36.2
01:05 1020 30.12 849 25.07 20.5 68.9 31 2.8 37
01:10 1020 30.12 849 25.07 20.5 69 29 1.9 35.5
01:15 1020 30.12 849 25.07 20.7 69.2 28 1.9 35.4
01:20 1020 30.12 849 25.07 20.7 69.2 28 1.8 35.3
01:25 1020 30.12 849 25.07 20.8 69.4 29 2.5 36.5
01:30 1020 30.12 849 25.07 20.4 68.8 30 2.3 36.1
01:35 1020 30.12 849 25.07 20.2 68.4 33 3.4 38.2
01:40 1020 30.12 849 25.07 20 68 31 2.5 36.5
01:45 1020 30.12 849 25.07 19.8 67.7 32 2.7 36.9
01:50 1020 30.12 849 25.07 19.1 66.3 33 2.4 36.3
01:55 1020 30.12 849 25.07 19 66.1 33 2.7 36.8
02:00 1020 30.12 849 25.07 19 66.1 34 2.7 36.9
02:05 1020 30.12 849 25.07 18.3 65 34 2.2 35.9
02:10 1020 30.12 849 25.07 18.1 64.6 34 2.2 35.9
02:15 1020 30.12 849 25.07 18.2 64.8 34 2.1 35.8
02:20 1020 30.12 849 25.07 18.3 65 35 2.6 36.7
02:25 1020 30.12 849 25.07 17.4 63.3 37 2.7 36.8
02:30 1020 30.12 850 25.1 16.9 62.3 40 3.1 37.6
02:35 1021 30.15 850 25.1 16.4 61.4 41 3.3 37.9
02:40 1021 30.15 850 25.1 16.1 60.9 40 2.7 36.9
02:45 1021 30.15 850 25.1 16.6 62 33 0.3 32.6
02:50 1021 30.15 850 25.1 18.3 64.9 34 2.3 36.1
02:55 1021 30.15 850 25.1 17.4 63.3 38 2.9 37.1
03:00 1021 30.15 850 25.1 16.8 62.3 36 2 35.6
03:05 1021 30.15 850 25.1 17 62.6 35 1.5 34.6
03:10 1021 30.15 850 25.1 17.4 63.3 38 3 37.3
03:15 1021 30.15 850 25.1 17.5 63.5 33 1.3 34.3
03:20 1021 30.15 850 25.1 17.8 64.1 35 2.1 35.8
03:25 1021 30.15 850 25.1 17.3 63.1 35 1.8 35.2
03:30 1021 30.15 850 25.1 17.1 62.7 36 1.9 35.5
03:35 1021 30.15 850 25.1 16.7 62 38 2.4 36.3
03:40 1021 30.15 850 25.1 16.2 61.2 38 1.9 35.4
03:45 1021 30.15 850 25.1 16.3 61.3 40 2.8 37.1
03:50 1021 30.15 850 25.1 16.2 61.2 42 3.6 38.4
03:55 1021 30.15 850 25.1 15.7 60.3 44 3.5 38.4
04:00 1021 30.15 851 25.13 15.3 59.5 42 2.4 36.4
04:05 1021 30.15 851 25.13 15.4 59.7 41 2.2 36
04:10 1021 30.15 851 25.13 15.3 59.6 43 2.9 37.3
04:15 1022 30.18 851 25.13 15.1 59.2 43 2.8 37
04:20 1022 30.18 851 25.13 15.3 59.6 40 2.1 35.7
04:25 1022 30.18 851 25.13 15.4 59.7 41 2.2 36
04:30 1022 30.18 851 25.13 15.2 59.3 42 2.6 36.7
04:35 1022 30.18 851 25.13 14.6 58.2 44 2.5 36.5
04:40 1022 30.18 851 25.13 14.3 57.7 45 2.5 36.5
04:45 1022 30.18 851 25.13 14.1 57.4 45 2.4 36.4
04:50 1022 30.18 851 25.13 14 57.3 46 2.6 36.7
04:55 1022 30.18 851 25.13 13.7 56.6 50 3.5 38.4
05:00 1022 30.18 851 25.13 13 55.4 51 3.3 37.9
05:05 1022 30.18 851 25.13 12.9 55.2 50 2.7 36.9
05:10 1022 30.18 851 25.13 13.8 56.8 43 1.5 34.8
05:15 1022 30.18 851 25.13 14.8 58.6 42 2.3 36.1
05:20 1022 30.18 851 25.13 14.7 58.4 42 2 35.6
05:25 1022 30.18 851 25.13 14.7 58.4 43 2.3 36.1
05:30 1022 30.18 851 25.13 14.6 58.4 43 2.4 36.4
05:35 1022 30.18 851 25.13 14.7 58.4 43 2.3 36.1
05:40 1022 30.18 851 25.13 14.9 58.8 40 1.6 34.8
05:45 1022 30.18 852 25.16 15.5 59.9 38 1.4 34.6
05:50 1022 30.18 852 25.16 15.5 59.8 41 2.3 36.2
05:55 1022 30.18 852 25.16 14.8 58.7 43 2.4 36.3
06:00 1022 30.18 852 25.16 14.5 58 44 2.4 36.3
06:05 1022 30.18 852 25.16 14.6 58.4 41 1.6 34.9
06:10 1022 30.18 852 25.16 15.4 59.8 39 1.5 34.7
06:15 1022 30.18 852 25.16 15.5 60 41 2.4 36.4
06:20 1022 30.18 852 25.16 15.3 59.5 42 2.6 36.7
06:25 1022 30.18 852 25.16 15 59 43 2.8 37
06:30 1023 30.21 852 25.16 14.9 58.7 44 2.9 37.2
06:35 1023 30.21 852 25.16 14.8 58.6 45 3 37.4
06:40 1023 30.21 852 25.16 14.9 58.8 44 2.9 37.2
06:45 1023 30.21 852 25.16 15.3 59.6 42 2.6 36.6
06:50 1023 30.21 852 25.16 15.8 60.5 41 2.8 37.1
06:55 1023 30.21 852 25.16 16.2 61.1 40 2.6 36.7
07:00 1023 30.21 852 25.16 16.5 61.6 41 3.1 37.6
07:05 1023 30.21 852 25.16 16.8 62.2 38 2.7 36.8
07:10 1023 30.21 852 25.16 17.2 63 38 2.9 37.1
07:15 1023 30.21 852 25.16 17.5 63.5 38 3.3 37.9
07:20 1023 30.21 852 25.16 17.8 64.1 37 3 37.5
07:25 1023 30.21 852 25.16 18.4 65 37 3.4 38.1
07:30 1023 30.21 852 25.16 18.7 65.6 37 3.9 39
07:35 1023 30.21 852 25.16 19 66.1 34 2.9 37.3
07:40 1023 30.21 852 25.16 19.1 66.4 36 3.8 38.8
07:45 1023 30.21 852 25.16 19.8 67.6 34 3.6 38.5
07:50 1023 30.21 852 25.16 20.4 68.8 33 3.9 39.1
07:55 1023 30.21 852 25.16 21 69.8 33 4.1 39.4
08:00 1023 30.21 852 25.16 21.2 70.1 33 4.4 39.9
08:05 1023 30.21 852 25.16 21.6 70.8 31 4.1 39.4
08:10 1023 30.21 852 25.16 21.9 71.4 30 3.9 39.1
08:15 1023 30.21 852 25.16 22.4 72.3 31 4.8 40.6
08:20 1023 30.21 852 25.16 22.9 73.2 30 4.7 40.4
08:25 1023 30.21 852 25.16 23.2 73.7 30 5 41
08:30 1023 30.21 852 25.16 23.7 74.7 29 5.1 41.1
08:35 1023 30.21 852 25.16 24 75.1 29 5.3 41.5
08:40 1023 30.21 853 25.19 24.1 75.4 28 4.5 40
08:45 1023 30.21 853 25.19 24.2 75.5 28 4.6 40.3
08:50 1023 30.21 853 25.19 24.1 75.3 29 5.2 41.3
08:55 1023 30.21 853 25.19 23.7 74.7 29 4.7 40.4
09:00 1023 30.21 853 25.19 23.8 74.8 28 4.3 39.8
09:05 1023 30.21 853 25.19 23.8 74.9 29 4.7 40.4
09:10 1024 30.24 853 25.19 23.9 75 28 4.5 40.1
09:15 1024 30.24 853 25.19 24.1 75.4 27 4.1 39.5
09:20 1024 30.24 853 25.19 24.2 75.5 27 4.5 40.1
09:25 1024 30.24 853 25.19 24.1 75.3 27 3.9 39.1
09:30 1024 30.24 853 25.19 24.1 75.5 27 4.1 39.3
09:35 1024 30.24 853 25.19 24.3 75.8 24 2.9 37.1
09:40 1024 30.24 853 25.19 24.8 76.6 25 3.5 38.2
09:45 1024 30.24 853 25.19 24.6 76.3 23 2.6 36.7
09:50 1024 30.24 853 25.19 24.6 76.2 23 2.3 36.2
09:55 1024 30.24 853 25.19 25 76.9 22 2.3 36.1
10:00 1024 30.24 853 25.19 24.8 76.7 24 2.9 37.2
10:05 1024 30.24 853 25.19 25 77.1 22 2.3 36.2
10:10 1023 30.21 853 25.19 24.7 76.5 22 2 35.6
10:15 1023 30.21 853 25.19 24.6 76.3 22 1.7 35
10:20 1023 30.21 853 25.19 25.4 77.8 21 1.5 34.8
10:25 1023 30.21 853 25.19 25.6 78.2 21 1.8 35.3
10:30 1023 30.21 852 25.16 25.7 78.3 21 2.3 36.2
10:35 1023 30.21 852 25.16 25.7 78.3 22 2.5 36.5
10:40 1023 30.21 852 25.16 25.6 78.1 21 1.9 35.5
10:45 1023 30.21 852 25.16 25.8 78.5 20 1.7 35
10:50 1023 30.21 852 25.16 26.2 79.2 21 2.5 36.5
10:55 1023 30.21 852 25.16 26.4 79.6 20 2.3 36.1
11:00 1023 30.21 852 25.16 26 78.8 20 1.4 34.6
11:05 1023 30.21 852 25.16 26.2 79.1 20 1.9 35.4
11:10 1023 30.21 852 25.16 26.2 79.2 19 1.2 34.1
11:15 1023 30.21 852 25.16 26.5 79.6 20 1.9 35.3
11:20 1023 30.21 852 25.16 26.7 80.1 20 2.4 36.3
11:25 1023 30.21 852 25.16 26.6 79.9 20 2.4 36.3
11:30 1023 30.21 852 25.16 26.7 80.1 20 2.1 35.8
11:35 1023 30.21 852 25.16 26.5 79.7 20 2.1 35.7
11:40 1023 30.21 852 25.16 26.4 79.5 19 1.5 34.6
11:45 1023 30.21 852 25.16 27.1 80.8 19 2 35.7
11:50 1023 30.21 852 25.16 27.6 81.7 19 2.2 35.9
11:55 1023 30.21 852 25.16 27.5 81.5 19 2 35.6
12:00 1023 30.21 852 25.16 27.4 81.3 20 2.8 37
12:05 1023 30.21 852 25.16 27.2 81 21 3 37.3
12:10 1023 30.21 852 25.16 26.7 80 22 3.5 38.3
12:15 1023 30.21 852 25.16 26.8 80.3 21 2.7 36.9
12:20 1023 30.21 852 25.16 26.7 80 21 2.7 36.9
12:25 1022 30.18 852 25.16 26.4 79.5 21 2.9 37.2
12:30 1022 30.18 852 25.16 26.5 79.7 22 3.1 37.6
12:35 1022 30.18 852 25.16 27.2 81 21 3.6 38.4
12:40 1022 30.18 852 25.16 27.4 81.3 21 3.4 38.1
12:45 1022 30.18 852 25.16 27 80.5 21 3.2 37.7
12:50 1022 30.18 852 25.16 26.7 80.1 21 3 37.4
12:55 1022 30.18 851 25.13 27.1 80.8 20 2.4 36.4
13:00 1022 30.18 851 25.13 26.9 80.4 20 2.2 36
13:05 1022 30.18 851 25.13 27.1 80.7 20 2.4 36.2
13:10 1022 30.18 851 25.13 27.6 81.7 19 2.5 36.6
13:15 1022 30.18 851 25.13 27.7 81.9 19 2.6 36.7
13:20 1022 30.18 851 25.13 28.1 82.6 18 2.1 35.8
13:25 1022 30.18 851 25.13 28.1 82.6 19 2.8 37
13:30 1022 30.18 851 25.13 28 82.4 19 2.6 36.8
13:35 1022 30.18 851 25.13 28.1 82.6 19 2.9 37.2
13:40 1022 30.18 851 25.13 28.4 83.2 20 3.8 38.8
13:45 1022 30.18 851 25.13 28.4 83.1 19 3.1 37.6
13:50 1022 30.18 851 25.13 28.5 83.3 19 2.8 37.1
13:55 1022 30.18 851 25.13 28.5 83.3 19 3 37.5
14:00 1022 30.18 851 25.13 28.8 83.8 16 0.9 33.5
14:05 1022 30.18 851 25.13 29.4 84.8 15 0.7 33.3
14:10 1022 30.18 851 25.13 29.2 84.6 16 1.1 34
14:15 1022 30.18 851 25.13 28.9 84 18 2.2 35.9
14:20 1022 30.18 851 25.13 28.5 83.3 18 2.5 36.5
14:25 1022 30.18 851 25.13 28.5 83.2 17 1.5 34.8
14:30 1022 30.18 851 25.13 28.5 83.3 17 1.6 34.9
14:35 1022 30.18 851 25.13 28.4 83.2 18 2.5 36.4
14:40 1022 30.18 851 25.13 28.4 83 19 2.5 36.5
14:45 1022 30.18 851 25.13 28.4 83 18 2.5 36.4
14:50 1022 30.18 851 25.13 28.4 83.1 20 3.8 38.8
14:55 1021 30.15 851 25.13 28.4 83.1 22 4.7 40.4
15:00 1021 30.15 851 25.13 28.4 83 20 3.4 38.1
15:05 1021 30.15 851 25.13 28.1 82.5 20 3.4 38.2
15:10 1021 30.15 850 25.1 27.9 82.3 20 3.3 38
15:15 1021 30.15 851 25.13 27.9 82.3 21 3.7 38.6
15:20 1021 30.15 851 25.13 28 82.3 22 4.4 40
15:25 1021 30.15 850 25.1 28.1 82.6 21 4 39.2
15:30 1021 30.15 850 25.1 28 82.4 20 3.2 37.7
15:35 1021 30.15 850 25.1 28.2 82.8 20 3.8 38.8
15:40 1021 30.15 850 25.1 28 82.4 21 3.8 38.8
15:45 1021 30.15 850 25.1 28.1 82.6 22 4.8 40.6
15:50 1021 30.15 850 25.1 28.4 83.1 22 4.8 40.6
15:55 1021 30.15 850 25.1 28.2 82.8 22 4.6 40.2
16:00 1021 30.15 850 25.1 27.8 82.1 26 6.6 43.8
16:05 1021 30.15 850 25.1 27.5 81.6 23 4.7 40.5
16:10 1021 30.15 850 25.1 27.6 81.7 23 4.8 40.7
16:15 1021 30.15 850 25.1 27.7 81.8 22 4.2 39.5
16:20 1021 30.15 850 25.1 27.6 81.7 28 7.7 45.8
16:25 1021 30.15 850 25.1 27.4 81.4 27 7.2 45
16:30 1021 30.15 850 25.1 27.4 81.2 25 5.8 42.4
16:35 1021 30.15 850 25.1 27.1 80.8 26 6 42.8
16:40 1021 30.15 850 25.1 27 80.6 25 5.4 41.7
16:45 1021 30.15 850 25.1 26.9 80.5 22 3.9 39
16:50 1021 30.15 850 25.1 27 80.7 22 4 39.2
16:55 1021 30.15 850 25.1 27.3 81.1 24 5.2 41.4
17:00 1021 30.15 850 25.1 27.5 81.5 25 6 42.9
17:05 1021 30.15 850 25.1 27.4 81.3 25 5.7 42.2
17:10 1020 30.12 850 25.1 27.4 81.2 28 7.4 45.3
17:15 1020 30.12 850 25.1 27.2 81 28 7.3 45.2
17:20 1020 30.12 850 25.1 26.9 80.5 25 5.5 41.8
17:25 1020 30.12 850 25.1 26.8 80.3 28 6.8 44.3
17:30 1020 30.12 850 25.1 26.9 80.3 28 7.2 45
17:35 1020 30.12 850 25.1 26.8 80.2 28 6.9 44.3
17:40 1020 30.12 850 25.1 26.8 80.2 28 6.8 44.2
17:45 1020 30.12 850 25.1 26.6 80 28 6.9 44.4
17:50 1020 30.12 849 25.07 26.5 79.6 29 7.3 45.2
17:55 1020 30.12 849 25.07 26.3 79.3 34 9.3 48.8
18:00 1020 30.12 849 25.07 26.1 78.9 33 9 48.2
18:05 1020 30.12 849 25.07 26 78.9 31 7.7 45.8
18:10 1020 30.12 849 25.07 26 78.8 29 7.1 44.7
18:15 1020 30.12 849 25.07 25.9 78.6 33 8.7 47.7
18:20 1020 30.12 849 25.07 25.5 77.8 32 7.9 46.2
18:25 1020 30.12 849 25.07 25.3 77.5 34 8.4 47
18:30 1020 30.12 849 25.07 25 77.1 30 6.7 44
18:35 1020 30.12 849 25.07 25.1 77.2 33 7.8 46
18:40 1020 30.12 849 25.07 25.2 77.4 35 8.8 47.9
18:45 1020 30.12 849 25.07 24.9 76.7 34 8.3 47
18:50 1020 30.12 849 25.07 24.5 76.2 33 7.5 45.5
18:55 1020 30.12 849 25.07 24.4 75.8 35 8 46.4
19:00 1020 30.12 849 25.07 24.3 75.8 35 8.2 46.7
19:05 1020 30.12 849 25.07 24.6 76.2 32 7.2 44.9
19:10 1020 30.12 849 25.07 24.8 76.7 32 7.2 44.9
19:15 1020 30.12 849 25.07 24.3 75.8 36 8.5 47.2
19:20 1020 30.12 849 25.07 23.5 74.3 38 8.5 47.3
19:25 1020 30.12 849 25.07 23.2 73.7 38 8.3 46.9
19:30 1020 30.12 849 25.07 23 73.4 39 8.7 47.6
19:35 1020 30.12 850 25.1 22.9 73.1 39 8.3 46.9
19:40 1020 30.12 850 25.1 22.5 72.4 45 10.1 50.1
19:45 1020 30.12 850 25.1 21.4 70.4 42 8.2 46.8
19:50 1020 30.12 850 25.1 21.9 71.4 39 7.3 45.2
19:55 1021 30.15 850 25.1 22.4 72.3 35 6.2 43.2
20:00 1021 30.15 850 25.1 22.4 72.3 41 8.5 47.4
20:05 1021 30.15 850 25.1 22.2 72 41 8.4 47
20:10 1021 30.15 850 25.1 22.1 71.7 36 6.4 43.6
20:15 1021 30.15 850 25.1 22.2 71.9 36 6.4 43.5
20:20 1021 30.15 850 25.1 22.2 71.9 39 7.6 45.7
20:25 1021 30.15 850 25.1 22 71.5 38 7.1 44.8
20:30 1021 30.15 850 25.1 22 71.6 39 7.6 45.7
20:35 1021 30.15 850 25.1 21.9 71.4 37 6.7 44.1
20:40 1021 30.15 850 25.1 22 71.5 39 7.7 45.8
20:45 1021 30.15 850 25.1 21.9 71.4 37 6.6 43.8
20:50 1021 30.15 850 25.1 21.7 71 35 5.8 42.4
20:55 1021 30.15 850 25.1 21.8 71.2 34 5.5 41.9
21:00 1021 30.15 850 25.1 21.8 71.3 33 5.2 41.3
21:05 1021 30.15 850 25.1 22 71.6 32 4.9 40.9
21:10 1021 30.15 850 25.1 22.2 71.9 32 5.1 41.2
21:15 1021 30.15 850 25.1 22.3 72.2 32 4.9 40.9
21:20 1021 30.15 850 25.1 22.3 72.2 33 5.2 41.4
21:25 1021 30.15 850 25.1 22.2 71.9 33 5.3 41.5
21:30 1021 30.15 850 25.1 21.8 71.3 34 5.5 41.9
21:35 1021 30.15 850 25.1 21.8 71.3 34 5.5 41.9
21:40 1021 30.15 850 25.1 21.9 71.5 34 5.5 41.9
21:45 1021 30.15 850 25.1 21.9 71.4 35 5.9 42.5
21:50 1021 30.15 850 25.1 21.8 71.3 36 6.3 43.3
21:55 1021 30.15 850 25.1 22 71.6 37 7 44.6
22:00 1021 30.15 850 25.1 22.2 71.9 34 5.8 42.4
22:05 1021 30.15 851 25.13 22.1 71.9 34 5.8 42.4
22:10 1021 30.15 851 25.13 21.9 71.4 35 6.1 42.9
22:15 1021 30.15 850 25.1 21.8 71.3 37 6.8 44.2
22:20 1021 30.15 850 25.1 21.5 70.7 38 6.7 44
22:25 1021 30.15 851 25.13 21.2 70.1 38 6.5 43.6
22:30 1021 30.15 851 25.13 20.9 69.5 41 7.3 45.1
22:35 1021 30.15 851 25.13 20.6 69.1 38 6.1 43
22:40 1021 30.15 851 25.13 20.9 69.6 38 6.1 42.9
22:45 1022 30.18 851 25.13 21 69.8 37 6.1 42.9
22:50 1022 30.18 851 25.13 20.7 69.3 40 6.7 44
22:55 1022 30.18 851 25.13 20.5 68.9 38 5.8 42.4
23:00 1022 30.18 851 25.13 21.1 69.9 39 6.6 43.8
23:05 1022 30.18 851 25.13 20.7 69.3 38 6.2 43.1
23:10 1022 30.18 851 25.13 20.9 69.6 38 6.4 43.5
23:15 1022 30.18 851 25.13 20.7 69.2 39 6.3 43.4
23:20 1022 30.18 851 25.13 20.6 69 39 6.1 43.1
23:25 1022 30.18 851 25.13 20.8 69.4 39 6.5 43.7
23:30 1022 30.18 851 25.13 20.8 69.4 39 6.7 44
23:35 1022 30.18 851 25.13 20.6 69.1 39 6.4 43.5
23:40 1022 30.18 851 25.13 20.5 68.9 41 7.1 44.8
23:45 1022 30.18 851 25.13 20.2 68.3 41 6.7 44.1
23:50 1022 30.18 851 25.13 20.3 68.5 41 6.8 44.2
23:55 1022 30.18 851 25.13 20 68.1 44 7.4 45.4
24:00 1022 30.18 851 25.13 19.5 67 44 7.1 44.8